createdAt,value
2018-12-06T00:00:20.051Z,8.07
2018-12-06T00:01:20.638Z,8.09
2018-12-06T00:02:21.224Z,8.04
2018-12-06T00:03:21.822Z,8.10
2018-12-06T00:04:22.418Z,8.12
2018-12-06T00:05:23.022Z,8.12
2018-12-06T00:06:23.622Z,8.23
2018-12-06T00:07:24.219Z,8.12
2018-12-06T00:08:24.883Z,8.13
2018-12-06T00:09:25.474Z,8.16
2018-12-06T00:10:26.059Z,8.17
2018-12-06T00:11:26.666Z,8.19
2018-12-06T00:12:27.273Z,8.16
2018-12-06T00:13:27.850Z,8.15
2018-12-06T00:14:28.450Z,8.17
2018-12-06T00:15:29.093Z,8.17
2018-12-06T00:16:29.656Z,8.12
2018-12-06T00:17:30.250Z,8.20
2018-12-06T00:18:30.839Z,8.30
2018-12-06T00:19:31.435Z,8.27
2018-12-06T00:20:32.034Z,8.30
2018-12-06T00:21:32.634Z,8.40
2018-12-06T00:22:33.231Z,8.34
2018-12-06T00:23:33.831Z,8.37
2018-12-06T00:24:34.429Z,8.33
2018-12-06T00:25:35.025Z,8.27
2018-12-06T00:26:35.619Z,8.31
2018-12-06T00:27:36.215Z,8.27
2018-12-06T00:28:36.813Z,8.34
2018-12-06T00:29:37.407Z,8.41
2018-12-06T00:30:37.995Z,8.41
2018-12-06T00:31:38.595Z,8.58
2018-12-06T00:32:39.191Z,8.49
2018-12-06T00:33:39.800Z,8.52
2018-12-06T00:34:40.389Z,8.50
2018-12-06T00:35:40.982Z,8.67
2018-12-06T00:36:41.572Z,8.84
2018-12-06T00:37:42.172Z,8.82
2018-12-06T00:38:42.769Z,8.76
2018-12-06T00:39:43.366Z,8.91
2018-12-06T00:40:43.966Z,8.96
2018-12-06T00:41:44.566Z,8.98
2018-12-06T00:42:45.157Z,8.93
2018-12-06T00:43:45.950Z,8.96
2018-12-06T00:44:46.544Z,8.98
2018-12-06T00:45:47.149Z,9.03
2018-12-06T00:46:47.744Z,9.01
2018-12-06T00:47:48.339Z,9.01
2018-12-06T00:48:48.933Z,8.96
2018-12-06T00:49:49.538Z,8.93
2018-12-06T00:50:50.132Z,9.01
2018-12-06T00:51:50.729Z,9.06
2018-12-06T00:52:51.326Z,9.11
2018-12-06T00:53:51.917Z,9.10
2018-12-06T00:54:52.514Z,9.12
2018-12-06T00:55:53.114Z,9.12
2018-12-06T00:56:53.725Z,9.14
2018-12-06T00:57:54.306Z,9.23
2018-12-06T00:58:54.902Z,9.38
2018-12-06T00:59:55.486Z,9.48
2018-12-06T01:00:56.101Z,9.38
2018-12-06T01:01:56.704Z,9.33
2018-12-06T01:02:57.290Z,9.44
2018-12-06T01:03:57.881Z,9.44
2018-12-06T01:04:58.468Z,9.47
2018-12-06T01:05:59.067Z,9.45
2018-12-06T01:06:59.663Z,9.41
2018-12-06T01:08:00.261Z,9.45
2018-12-06T01:09:00.859Z,9.61
2018-12-06T01:10:01.461Z,9.59
2018-12-06T01:11:02.057Z,9.56
2018-12-06T01:12:02.655Z,9.62
2018-12-06T01:13:03.256Z,9.59
2018-12-06T01:14:03.855Z,9.71
2018-12-06T01:15:04.455Z,9.68
2018-12-06T01:16:05.048Z,9.58
2018-12-06T01:17:05.649Z,9.61
2018-12-06T01:18:06.239Z,9.59
2018-12-06T01:19:06.837Z,9.61
2018-12-06T01:20:07.430Z,9.61
2018-12-06T01:21:08.023Z,9.59
2018-12-06T01:22:08.619Z,9.63
2018-12-06T01:23:09.219Z,9.61
2018-12-06T01:24:09.818Z,9.68
2018-12-06T01:25:10.417Z,9.61
2018-12-06T01:26:11.013Z,9.66
2018-12-06T01:27:11.603Z,9.66
2018-12-06T01:28:12.205Z,9.63
2018-12-06T01:29:12.788Z,9.77
2018-12-06T01:30:13.387Z,9.80
2018-12-06T01:31:13.994Z,9.71
2018-12-06T01:32:14.576Z,9.69
2018-12-06T01:33:15.173Z,9.71
2018-12-06T01:34:15.786Z,9.80
2018-12-06T01:35:16.385Z,9.94
2018-12-06T01:36:16.983Z,9.86
2018-12-06T01:37:17.582Z,9.84
2018-12-06T01:38:18.195Z,9.94
2018-12-06T01:39:18.838Z,9.80
2018-12-06T01:40:19.382Z,9.88
2018-12-06T01:41:19.984Z,9.84
2018-12-06T01:42:20.576Z,9.88
2018-12-06T01:43:21.171Z,9.94
2018-12-06T01:44:21.781Z,9.95
2018-12-06T01:45:22.374Z,9.94
2018-12-06T01:46:22.982Z,9.94
2018-12-06T01:47:23.614Z,9.90
2018-12-06T01:48:24.203Z,9.91
2018-12-06T01:49:24.794Z,9.90
2018-12-06T01:50:25.392Z,9.88
2018-12-06T01:51:25.996Z,9.98
2018-12-06T01:52:26.598Z,9.86
2018-12-06T01:53:27.198Z,9.95
2018-12-06T01:54:27.797Z,9.91
2018-12-06T01:55:28.375Z,9.99
2018-12-06T01:56:28.982Z,10.02
2018-12-06T01:57:29.582Z,9.98
2018-12-06T01:58:30.194Z,10.01
2018-12-06T01:59:30.771Z,10.01
2018-12-06T02:00:31.373Z,10.05
2018-12-06T02:01:31.967Z,10.04
2018-12-06T02:02:32.556Z,10.02
2018-12-06T02:03:33.150Z,9.99
2018-12-06T02:04:33.758Z,9.96
2018-12-06T02:05:34.358Z,9.95
2018-12-06T02:06:34.957Z,9.98
2018-12-06T02:07:35.553Z,9.98
2018-12-06T02:08:36.150Z,9.98
2018-12-06T02:09:36.741Z,10.02
2018-12-06T02:10:37.342Z,9.96
2018-12-06T02:11:37.938Z,10.02
2018-12-06T02:12:38.535Z,9.90
2018-12-06T02:13:39.135Z,10.01
2018-12-06T02:14:39.742Z,9.96
2018-12-06T02:15:40.336Z,10.05
2018-12-06T02:16:41.034Z,10.05
2018-12-06T02:17:41.528Z,9.99
2018-12-06T02:18:42.124Z,9.95
2018-12-06T02:19:42.717Z,10.01
2018-12-06T02:20:43.317Z,10.01
2018-12-06T02:21:43.908Z,10.01
2018-12-06T02:22:44.507Z,10.08
2018-12-06T02:23:45.104Z,9.99
2018-12-06T02:24:45.702Z,10.06
2018-12-06T02:25:46.315Z,10.01
2018-12-06T02:26:46.891Z,10.02
2018-12-06T02:27:47.482Z,10.02
2018-12-06T02:28:48.085Z,9.98
2018-12-06T02:29:48.672Z,10.02
2018-12-06T02:30:49.266Z,10.08
2018-12-06T02:31:49.867Z,10.05
2018-12-06T02:32:50.469Z,10.08
2018-12-06T02:33:51.065Z,10.04
2018-12-06T02:34:51.671Z,9.96
2018-12-06T02:35:52.265Z,10.02
2018-12-06T02:36:52.868Z,9.95
2018-12-06T02:37:53.465Z,9.96
2018-12-06T02:38:54.078Z,9.98
2018-12-06T02:39:54.659Z,10.05
2018-12-06T02:40:55.250Z,10.08
2018-12-06T02:41:55.851Z,10.05
2018-12-06T02:42:56.451Z,10.13
2018-12-06T02:43:57.049Z,10.09
2018-12-06T02:44:57.653Z,10.06
2018-12-06T02:45:58.250Z,10.14
2018-12-06T02:46:58.851Z,10.12
2018-12-06T02:47:59.448Z,10.17
2018-12-06T02:49:00.051Z,10.20
2018-12-06T02:50:00.647Z,10.16
2018-12-06T02:51:01.239Z,10.17
2018-12-06T02:52:01.843Z,10.20
2018-12-06T02:53:02.439Z,10.14
2018-12-06T02:54:03.036Z,10.19
2018-12-06T02:55:03.628Z,10.20
2018-12-06T02:56:04.226Z,10.19
2018-12-06T02:57:04.828Z,10.31
2018-12-06T02:58:05.427Z,10.24
2018-12-06T02:59:06.021Z,10.19
2018-12-06T03:00:06.627Z,10.31
2018-12-06T03:01:07.224Z,10.29
2018-12-06T03:02:07.822Z,10.24
2018-12-06T03:03:08.415Z,10.24
2018-12-06T03:04:09.016Z,10.16
2018-12-06T03:05:09.617Z,10.32
2018-12-06T03:06:10.213Z,10.31
2018-12-06T03:07:10.815Z,10.20
2018-12-06T03:08:11.417Z,10.35
2018-12-06T03:09:12.012Z,10.29
2018-12-06T03:10:12.607Z,10.22
2018-12-06T03:11:13.207Z,10.32
2018-12-06T03:12:13.807Z,10.29
2018-12-06T03:13:14.397Z,10.22
2018-12-06T03:14:15.010Z,10.26
2018-12-06T03:15:15.598Z,10.32
2018-12-06T03:16:16.188Z,10.31
2018-12-06T03:17:16.797Z,10.27
2018-12-06T03:18:17.387Z,10.27
2018-12-06T03:19:17.989Z,10.23
2018-12-06T03:20:18.591Z,10.29
2018-12-06T03:21:19.191Z,10.26
2018-12-06T03:22:19.781Z,10.31
2018-12-06T03:23:20.374Z,10.29
2018-12-06T03:24:20.972Z,10.31
2018-12-06T03:25:21.574Z,10.23
2018-12-06T03:26:22.163Z,10.34
2018-12-06T03:27:22.756Z,10.31
2018-12-06T03:28:23.355Z,10.26
2018-12-06T03:29:23.962Z,10.27
2018-12-06T03:30:24.555Z,10.38
2018-12-06T03:31:25.152Z,10.38
2018-12-06T03:32:25.744Z,10.34
2018-12-06T03:33:26.365Z,10.37
2018-12-06T03:34:26.926Z,10.35
2018-12-06T03:35:27.528Z,10.35
2018-12-06T03:36:28.133Z,10.35
2018-12-06T03:37:28.727Z,10.39
2018-12-06T03:38:29.317Z,10.34
2018-12-06T03:39:29.924Z,10.31
2018-12-06T03:40:30.523Z,10.32
2018-12-06T03:41:31.121Z,10.35
2018-12-06T03:42:31.726Z,10.34
2018-12-06T03:43:32.310Z,10.41
2018-12-06T03:44:32.914Z,10.29
2018-12-06T03:45:33.509Z,10.37
2018-12-06T03:46:34.109Z,10.29
2018-12-06T03:47:34.707Z,10.37
2018-12-06T03:48:35.302Z,10.39
2018-12-06T03:49:35.903Z,10.41
2018-12-06T03:50:36.505Z,10.31
2018-12-06T03:51:37.101Z,10.29
2018-12-06T03:52:37.703Z,10.34
2018-12-06T03:53:38.294Z,10.35
2018-12-06T03:54:38.886Z,10.41
2018-12-06T03:55:39.475Z,10.32
2018-12-06T03:56:40.074Z,10.29
2018-12-06T03:57:40.676Z,10.31
2018-12-06T03:58:41.275Z,10.26
2018-12-06T03:59:41.868Z,10.37
2018-12-06T04:00:42.468Z,10.42
2018-12-06T04:01:43.063Z,10.41
2018-12-06T04:02:43.660Z,10.42
2018-12-06T04:03:44.261Z,10.47
2018-12-06T04:04:44.860Z,10.51
2018-12-06T04:05:45.453Z,10.51
2018-12-06T04:06:46.041Z,10.53
2018-12-06T04:07:46.644Z,10.51
2018-12-06T04:08:47.249Z,10.57
2018-12-06T04:09:47.845Z,10.45
2018-12-06T04:10:48.442Z,10.51
2018-12-06T04:11:49.039Z,10.63
2018-12-06T04:12:49.641Z,10.51
2018-12-06T04:13:50.240Z,10.54
2018-12-06T04:14:50.841Z,10.58
2018-12-06T04:15:51.434Z,10.61
2018-12-06T04:16:52.036Z,10.53
2018-12-06T04:17:52.635Z,10.63
2018-12-06T04:18:53.238Z,10.69
2018-12-06T04:19:53.842Z,10.71
2018-12-06T04:20:54.428Z,10.66
2018-12-06T04:21:55.034Z,10.63
2018-12-06T04:22:55.635Z,10.64
2018-12-06T04:23:56.220Z,10.58
2018-12-06T04:24:56.812Z,10.58
2018-12-06T04:25:57.417Z,10.53
2018-12-06T04:26:58.018Z,10.51
2018-12-06T04:27:58.620Z,10.53
2018-12-06T04:28:59.219Z,10.51
2018-12-06T04:29:59.812Z,10.49
2018-12-06T04:31:00.405Z,10.39
2018-12-06T04:32:00.994Z,10.47
2018-12-06T04:33:01.594Z,10.41
2018-12-06T04:34:02.186Z,10.39
2018-12-06T04:35:02.792Z,10.45
2018-12-06T04:36:03.404Z,10.41
2018-12-06T04:37:03.984Z,10.45
2018-12-06T04:38:04.600Z,10.41
2018-12-06T04:39:05.193Z,10.41
2018-12-06T04:40:05.792Z,10.42
2018-12-06T04:41:06.394Z,10.37
2018-12-06T04:42:06.993Z,10.39
2018-12-06T04:43:07.593Z,10.41
2018-12-06T04:44:08.192Z,10.32
2018-12-06T04:45:08.793Z,10.37
2018-12-06T04:46:09.388Z,10.29
2018-12-06T04:47:09.986Z,10.37
2018-12-06T04:48:10.588Z,10.42
2018-12-06T04:49:11.189Z,10.35
2018-12-06T04:50:11.777Z,10.38
2018-12-06T04:51:12.381Z,10.37
2018-12-06T04:52:12.979Z,10.35
2018-12-06T04:53:13.579Z,10.42
2018-12-06T04:54:14.180Z,10.39
2018-12-06T04:55:14.778Z,10.37
2018-12-06T04:56:15.380Z,10.34
2018-12-06T04:57:15.980Z,10.34
2018-12-06T04:58:16.580Z,10.35
2018-12-06T04:59:17.183Z,10.35
2018-12-06T05:00:17.782Z,10.39
2018-12-06T05:01:18.382Z,10.38
2018-12-06T05:02:18.981Z,10.41
2018-12-06T05:03:19.573Z,10.42
2018-12-06T05:04:20.178Z,10.32
2018-12-06T05:05:20.779Z,10.34
2018-12-06T05:06:21.373Z,10.31
2018-12-06T05:07:21.970Z,10.35
2018-12-06T05:08:22.566Z,10.29
2018-12-06T05:09:23.158Z,10.41
2018-12-06T05:10:23.755Z,10.38
2018-12-06T05:11:24.347Z,10.37
2018-12-06T05:12:24.940Z,10.34
2018-12-06T05:13:25.541Z,10.32
2018-12-06T05:14:26.169Z,10.38
2018-12-06T05:15:26.742Z,10.35
2018-12-06T05:16:27.345Z,10.32
2018-12-06T05:17:27.946Z,10.38
2018-12-06T05:18:28.561Z,10.41
2018-12-06T05:19:29.147Z,10.27
2018-12-06T05:20:29.748Z,10.38
2018-12-06T05:21:30.346Z,10.35
2018-12-06T05:22:30.949Z,10.31
2018-12-06T05:23:31.548Z,10.41
2018-12-06T05:24:32.138Z,10.37
2018-12-06T05:25:32.740Z,10.29
2018-12-06T05:26:33.342Z,10.35
2018-12-06T05:27:33.940Z,10.32
2018-12-06T05:28:34.545Z,10.31
2018-12-06T05:29:35.132Z,10.32
2018-12-06T05:30:35.730Z,10.37
2018-12-06T05:31:36.333Z,10.32
2018-12-06T05:32:36.923Z,10.31
2018-12-06T05:33:37.520Z,10.26
2018-12-06T05:34:38.111Z,10.31
2018-12-06T05:35:38.717Z,10.37
2018-12-06T05:36:39.419Z,10.35
2018-12-06T05:37:39.930Z,10.35
2018-12-06T05:38:41.775Z,10.37
2018-12-06T05:39:41.119Z,10.39
2018-12-06T05:40:41.715Z,10.38
2018-12-06T05:41:42.303Z,10.47
2018-12-06T05:42:42.901Z,10.42
2018-12-06T05:43:43.494Z,10.41
2018-12-06T05:44:44.094Z,10.41
2018-12-06T05:45:44.696Z,10.47
2018-12-06T05:46:45.293Z,10.45
2018-12-06T05:47:45.880Z,10.47
2018-12-06T05:48:46.486Z,10.54
2018-12-06T05:49:47.083Z,10.49
2018-12-06T05:50:47.669Z,10.54
2018-12-06T05:51:48.271Z,10.54
2018-12-06T05:52:48.871Z,10.51
2018-12-06T05:53:49.482Z,10.54
2018-12-06T05:54:50.073Z,10.51
2018-12-06T05:55:50.674Z,10.57
2018-12-06T05:56:51.275Z,10.56
2018-12-06T05:57:51.876Z,10.61
2018-12-06T05:58:52.479Z,10.56
2018-12-06T05:59:53.076Z,10.56
2018-12-06T06:00:53.666Z,10.47
2018-12-06T06:01:54.269Z,10.57
2018-12-06T06:02:54.867Z,10.51
2018-12-06T06:03:55.476Z,10.51
2018-12-06T06:04:56.068Z,10.47
2018-12-06T06:05:56.668Z,10.49
2018-12-06T06:06:57.260Z,10.47
2018-12-06T06:07:57.860Z,10.56
2018-12-06T06:08:58.460Z,10.45
2018-12-06T06:09:59.058Z,10.47
2018-12-06T06:11:56.582Z,10.56
2018-12-06T06:12:57.182Z,10.60
2018-12-06T06:13:57.780Z,10.51
2018-12-06T06:14:58.378Z,10.51
2018-12-06T06:15:58.984Z,10.54
2018-12-06T06:16:59.584Z,10.54
2018-12-06T06:18:00.184Z,10.51
2018-12-06T06:19:00.779Z,10.51
2018-12-06T06:20:01.370Z,10.51
2018-12-06T06:21:01.971Z,10.69
2018-12-06T06:22:02.571Z,10.56
2018-12-06T06:23:03.165Z,10.72
2018-12-06T06:24:03.762Z,10.61
2018-12-06T06:25:04.360Z,10.69
2018-12-06T06:26:04.960Z,10.71
2018-12-06T06:27:05.556Z,10.71
2018-12-06T06:28:06.148Z,10.74
2018-12-06T06:29:06.745Z,10.82
2018-12-06T06:30:07.338Z,10.74
2018-12-06T06:31:07.941Z,10.74
2018-12-06T06:32:08.545Z,10.78
2018-12-06T06:33:09.142Z,10.67
2018-12-06T06:34:09.741Z,10.79
2018-12-06T06:35:10.341Z,10.75
2018-12-06T06:36:10.942Z,10.76
2018-12-06T06:37:11.531Z,10.75
2018-12-06T06:38:12.132Z,10.69
2018-12-06T06:39:12.731Z,10.72
2018-12-06T06:40:13.331Z,10.76
2018-12-06T06:41:13.927Z,10.89
2018-12-06T06:42:14.529Z,10.81
2018-12-06T06:43:15.128Z,10.82
2018-12-06T06:44:15.719Z,10.83
2018-12-06T06:45:16.345Z,10.87
2018-12-06T06:46:16.919Z,10.81
2018-12-06T06:47:17.517Z,10.82
2018-12-06T06:48:18.110Z,10.93
2018-12-06T06:49:18.702Z,10.82
2018-12-06T06:50:19.301Z,10.83
2018-12-06T06:51:19.902Z,10.87
2018-12-06T06:52:20.503Z,10.96
2018-12-06T06:53:21.108Z,10.90
2018-12-06T06:54:21.709Z,10.90
2018-12-06T06:55:22.299Z,10.94
2018-12-06T06:56:22.901Z,10.94
2018-12-06T06:57:23.496Z,10.97
2018-12-06T06:58:24.091Z,10.94
2018-12-06T06:59:26.202Z,10.90
2018-12-06T07:00:25.292Z,10.96
2018-12-06T07:01:25.888Z,11.00
2018-12-06T07:02:26.482Z,10.94
2018-12-06T07:03:27.082Z,10.93
2018-12-06T07:04:27.675Z,10.99
2018-12-06T07:05:28.269Z,10.97
2018-12-06T07:06:28.874Z,11.04
2018-12-06T07:07:29.528Z,10.96
2018-12-06T07:08:30.125Z,11.01
2018-12-06T07:09:30.725Z,10.99
2018-12-06T07:10:31.355Z,11.04
2018-12-06T07:11:31.924Z,10.99
2018-12-06T07:12:32.825Z,11.08
2018-12-06T07:13:33.427Z,11.11
2018-12-06T07:14:34.030Z,11.11
2018-12-06T07:15:34.635Z,11.00
2018-12-06T07:16:35.233Z,11.04
2018-12-06T07:17:35.834Z,11.08
2018-12-06T07:18:36.436Z,11.09
2018-12-06T07:19:37.041Z,11.01
2018-12-06T07:20:37.690Z,11.14
2018-12-06T07:21:38.286Z,11.09
2018-12-06T07:22:38.886Z,11.07
2018-12-06T07:23:39.483Z,11.03
2018-12-06T07:24:40.089Z,11.03
2018-12-06T07:25:46.192Z,11.12
2018-12-06T07:26:41.449Z,11.07
2018-12-06T07:27:42.066Z,11.01
2018-12-06T07:28:42.669Z,11.04
2018-12-06T07:29:43.271Z,11.09
2018-12-06T07:30:43.876Z,11.08
2018-12-06T07:31:44.480Z,11.08
2018-12-06T07:32:45.084Z,11.07
2018-12-06T07:33:45.687Z,11.07
2018-12-06T07:34:46.331Z,11.07
2018-12-06T07:35:46.928Z,11.07
2018-12-06T07:36:47.532Z,11.07
2018-12-06T07:37:48.124Z,11.12
2018-12-06T07:38:48.728Z,11.11
2018-12-06T07:39:49.331Z,11.15
2018-12-06T07:40:50.007Z,11.19
2018-12-06T07:41:50.539Z,11.11
2018-12-06T07:42:51.133Z,11.16
2018-12-06T07:43:51.727Z,11.21
2018-12-06T07:44:52.324Z,11.16
2018-12-06T07:45:52.933Z,11.19
2018-12-06T07:46:53.530Z,11.19
2018-12-06T07:47:54.132Z,11.22
2018-12-06T07:48:54.733Z,11.29
2018-12-06T07:49:55.338Z,11.24
2018-12-06T07:50:55.937Z,11.26
2018-12-06T07:51:56.535Z,11.30
2018-12-06T07:52:57.138Z,11.33
2018-12-06T07:53:57.739Z,11.27
2018-12-06T07:54:58.339Z,11.33
2018-12-06T07:55:58.955Z,11.39
2018-12-06T07:56:59.547Z,11.30
2018-12-06T07:58:00.144Z,11.36
2018-12-06T07:59:00.742Z,11.36
2018-12-06T08:00:01.350Z,11.32
2018-12-06T08:01:01.941Z,11.30
2018-12-06T08:02:02.546Z,11.44
2018-12-06T08:04:18.626Z,11.37
2018-12-06T08:05:19.231Z,11.44
2018-12-06T08:06:19.835Z,11.47
2018-12-06T08:07:20.492Z,11.50
2018-12-06T08:08:21.099Z,11.50
2018-12-06T08:09:21.702Z,11.58
2018-12-06T08:10:22.295Z,11.54
2018-12-06T08:11:22.901Z,11.54
2018-12-06T08:12:23.506Z,11.62
2018-12-06T08:13:24.115Z,11.62
2018-12-06T08:14:24.717Z,11.70
2018-12-06T08:15:25.370Z,11.66
2018-12-06T08:16:25.966Z,11.69
2018-12-06T08:17:26.572Z,11.67
2018-12-06T08:18:27.181Z,11.72
2018-12-06T08:19:27.784Z,11.69
2018-12-06T08:20:28.391Z,11.77
2018-12-06T08:21:28.995Z,11.73
2018-12-06T08:22:29.601Z,11.80
2018-12-06T08:23:30.200Z,11.81
2018-12-06T08:24:30.795Z,11.81
2018-12-06T08:25:31.397Z,11.80
2018-12-06T08:26:31.998Z,11.77
2018-12-06T08:27:32.593Z,11.73
2018-12-06T08:28:33.203Z,11.88
2018-12-06T08:29:33.805Z,11.83
2018-12-06T08:30:34.418Z,11.87
2018-12-06T08:31:35.019Z,11.87
2018-12-06T08:32:35.621Z,11.83
2018-12-06T08:33:36.221Z,11.90
2018-12-06T08:34:36.821Z,11.84
2018-12-06T08:35:37.423Z,11.85
2018-12-06T08:36:38.036Z,11.84
2018-12-06T08:38:54.120Z,11.90
2018-12-06T08:39:54.723Z,12.00
2018-12-06T08:40:55.330Z,12.00
2018-12-06T08:41:55.930Z,11.96
2018-12-06T08:42:56.535Z,12.03
2018-12-06T08:43:57.142Z,12.11
2018-12-06T08:44:57.746Z,12.13
2018-12-06T08:45:58.341Z,12.10
2018-12-06T08:46:58.952Z,12.16
2018-12-06T08:47:59.555Z,12.16
2018-12-06T08:49:03.077Z,12.18
2018-12-06T08:50:00.770Z,12.24
2018-12-06T08:51:01.359Z,12.27
2018-12-06T08:52:01.966Z,12.34
2018-12-06T08:53:02.572Z,12.32
2018-12-06T08:54:03.172Z,12.29
2018-12-06T08:55:03.778Z,12.29
2018-12-06T08:56:04.384Z,12.32
2018-12-06T08:57:04.995Z,12.29
2018-12-06T08:58:05.581Z,12.43
2018-12-06T08:59:06.185Z,12.49
2018-12-06T09:00:06.793Z,12.57
2018-12-06T09:01:08.556Z,12.49
2018-12-06T09:02:08.009Z,12.53
2018-12-06T09:03:08.607Z,12.62
2018-12-06T09:04:09.218Z,12.58
2018-12-06T09:05:09.811Z,12.64
2018-12-06T09:06:10.413Z,12.65
2018-12-06T09:07:11.265Z,12.71
2018-12-06T09:08:11.786Z,12.77
2018-12-06T09:09:12.391Z,12.83
2018-12-06T09:10:13.002Z,12.79
2018-12-06T09:11:13.651Z,12.89
2018-12-06T09:12:14.254Z,12.89
2018-12-06T09:13:14.857Z,12.94
2018-12-06T09:14:15.466Z,12.93
2018-12-06T09:15:16.069Z,12.94
2018-12-06T09:16:16.668Z,12.94
2018-12-06T09:17:17.282Z,12.93
2018-12-06T09:18:17.883Z,13.00
2018-12-06T09:19:18.485Z,12.93
2018-12-06T09:20:19.083Z,12.90
2018-12-06T09:21:19.690Z,12.94
2018-12-06T09:22:20.292Z,13.00
2018-12-06T09:23:20.896Z,13.01
2018-12-06T09:24:21.506Z,13.05
2018-12-06T09:25:22.119Z,13.00
2018-12-06T09:26:22.727Z,13.04
2018-12-06T09:27:23.335Z,13.16
2018-12-06T09:28:23.942Z,12.97
2018-12-06T09:29:24.554Z,12.98
2018-12-06T09:30:25.148Z,13.02
2018-12-06T09:31:25.751Z,13.15
2018-12-06T09:32:26.362Z,13.07
2018-12-06T09:33:26.967Z,13.04
2018-12-06T09:34:27.569Z,13.07
2018-12-06T09:35:28.177Z,13.02
2018-12-06T09:36:28.787Z,13.02
2018-12-06T09:37:29.394Z,13.02
2018-12-06T09:38:30.011Z,13.02
2018-12-06T09:39:30.605Z,13.07
2018-12-06T09:40:31.215Z,13.07
2018-12-06T09:41:31.894Z,13.01
2018-12-06T09:42:32.493Z,13.13
2018-12-06T09:43:33.122Z,13.10
2018-12-06T09:44:33.734Z,13.10
2018-12-06T09:45:34.339Z,13.07
2018-12-06T09:46:34.945Z,13.16
2018-12-06T09:47:35.548Z,13.18
2018-12-06T09:48:36.162Z,13.12
2018-12-06T09:49:36.770Z,13.13
2018-12-06T09:50:37.380Z,13.20
2018-12-06T09:51:37.988Z,13.25
2018-12-06T09:52:38.613Z,13.26
2018-12-06T09:53:39.214Z,13.22
2018-12-06T09:54:39.807Z,13.27
2018-12-06T09:55:40.417Z,13.19
2018-12-06T09:56:41.029Z,13.23
2018-12-06T09:57:41.637Z,13.25
2018-12-06T09:58:42.245Z,13.22
2018-12-06T09:59:42.869Z,13.25
2018-12-06T10:00:43.462Z,13.19
2018-12-06T10:01:44.091Z,13.25
2018-12-06T10:02:44.688Z,13.35
2018-12-06T10:03:45.500Z,13.23
2018-12-06T10:04:46.188Z,13.20
2018-12-06T10:05:46.830Z,13.23
2018-12-06T10:06:47.442Z,13.23
2018-12-06T10:07:48.026Z,13.18
2018-12-06T10:08:48.661Z,13.22
2018-12-06T10:09:49.267Z,13.25
2018-12-06T10:10:49.876Z,13.35
2018-12-06T10:11:50.472Z,13.25
2018-12-06T10:12:51.080Z,13.33
2018-12-06T10:13:51.711Z,13.27
2018-12-06T10:14:52.706Z,13.35
2018-12-06T10:15:53.842Z,13.31
2018-12-06T10:16:54.412Z,13.36
2018-12-06T10:17:55.580Z,13.35
2018-12-06T10:18:56.215Z,13.33
2018-12-06T10:19:56.836Z,13.39
2018-12-06T10:20:57.493Z,13.36
2018-12-06T10:21:58.121Z,13.35
2018-12-06T10:22:58.780Z,13.35
2018-12-06T10:23:59.464Z,13.35
2018-12-06T10:25:00.259Z,13.39
2018-12-06T10:26:00.866Z,13.27
2018-12-06T10:27:01.474Z,13.33
2018-12-06T10:28:02.082Z,13.31
2018-12-06T10:29:02.682Z,13.30
2018-12-06T10:30:03.291Z,13.10
2018-12-06T10:31:03.907Z,13.16
2018-12-06T10:32:04.532Z,13.13
2018-12-06T10:33:05.130Z,13.18
2018-12-06T10:34:05.736Z,13.18
2018-12-06T10:35:06.345Z,13.16
2018-12-06T10:36:06.952Z,12.98
2018-12-06T10:37:07.552Z,13.01
2018-12-06T10:38:08.163Z,12.98
2018-12-06T10:39:08.765Z,12.97
2018-12-06T10:40:09.365Z,13.18
2018-12-06T10:41:09.979Z,13.18
2018-12-06T10:42:10.583Z,13.19
2018-12-06T10:43:11.196Z,13.26
2018-12-06T10:44:11.795Z,13.35
2018-12-06T10:45:12.391Z,13.46
2018-12-06T10:46:13.004Z,13.49
2018-12-06T10:47:13.685Z,13.63
2018-12-06T10:48:14.232Z,13.57
2018-12-06T10:49:14.823Z,13.75
2018-12-06T10:50:15.443Z,13.78
2018-12-06T10:51:16.044Z,13.79
2018-12-06T10:52:16.656Z,13.94
2018-12-06T10:53:17.270Z,14.03
2018-12-06T10:54:17.876Z,14.11
2018-12-06T10:55:18.481Z,14.08
2018-12-06T10:56:19.092Z,14.08
2018-12-06T10:57:19.692Z,14.15
2018-12-06T10:58:20.300Z,14.11
2018-12-06T10:59:20.906Z,14.08
2018-12-06T11:00:21.512Z,14.00
2018-12-06T11:01:22.118Z,14.02
2018-12-06T11:02:22.729Z,14.02
2018-12-06T11:03:23.338Z,14.05
2018-12-06T11:04:23.949Z,14.03
2018-12-06T11:05:24.556Z,14.00
2018-12-06T11:06:25.167Z,14.03
2018-12-06T11:07:25.777Z,14.03
2018-12-06T11:08:26.388Z,14.03
2018-12-06T11:09:27.018Z,14.10
2018-12-06T11:10:27.600Z,14.03
2018-12-06T11:11:28.207Z,14.00
2018-12-06T11:12:28.814Z,14.03
2018-12-06T11:13:29.423Z,13.99
2018-12-06T11:14:30.033Z,13.94
2018-12-06T11:15:30.664Z,13.92
2018-12-06T11:16:31.251Z,13.94
2018-12-06T11:17:31.848Z,13.87
2018-12-06T11:18:32.449Z,13.87
2018-12-06T11:19:33.048Z,13.82
2018-12-06T11:20:33.653Z,13.87
2018-12-06T11:21:34.258Z,13.86
2018-12-06T11:22:34.854Z,13.86
2018-12-06T11:23:35.459Z,13.72
2018-12-06T11:24:36.066Z,13.77
2018-12-06T11:25:36.676Z,13.75
2018-12-06T11:26:37.282Z,13.81
2018-12-06T11:27:37.893Z,13.77
2018-12-06T11:28:38.496Z,13.71
2018-12-06T11:29:39.101Z,13.61
2018-12-06T11:30:39.713Z,13.57
2018-12-06T11:31:40.321Z,13.68
2018-12-06T11:32:40.919Z,13.61
2018-12-06T11:33:41.522Z,13.61
2018-12-06T11:34:42.180Z,13.63
2018-12-06T11:35:42.792Z,13.57
2018-12-06T11:36:43.390Z,13.64
2018-12-06T11:37:43.999Z,13.63
2018-12-06T11:38:44.608Z,13.63
2018-12-06T11:39:45.216Z,13.59
2018-12-06T11:40:45.814Z,13.64
2018-12-06T11:41:46.425Z,13.61
2018-12-06T11:42:47.037Z,13.69
2018-12-06T11:43:47.637Z,13.54
2018-12-06T11:44:48.240Z,13.66
2018-12-06T11:45:48.880Z,13.63
2018-12-06T11:46:49.478Z,13.68
2018-12-06T11:47:50.076Z,13.74
2018-12-06T11:48:50.686Z,13.72
2018-12-06T11:49:51.292Z,13.60
2018-12-06T11:50:51.905Z,13.71
2018-12-06T11:51:52.502Z,13.56
2018-12-06T11:52:53.115Z,13.63
2018-12-06T11:53:53.711Z,13.74
2018-12-06T11:54:54.324Z,13.75
2018-12-06T11:55:54.912Z,13.71
2018-12-06T11:56:55.521Z,13.69
2018-12-06T11:57:56.120Z,13.72
2018-12-06T11:58:56.803Z,13.72
2018-12-06T11:59:57.321Z,13.78
2018-12-06T12:00:57.929Z,13.81
2018-12-06T12:01:58.538Z,13.71
2018-12-06T12:02:59.146Z,13.75
2018-12-06T12:03:59.756Z,13.79
2018-12-06T12:05:00.362Z,13.75
2018-12-06T12:06:00.968Z,13.72
2018-12-06T12:07:01.570Z,13.77
2018-12-06T12:08:02.166Z,13.78
2018-12-06T12:09:02.775Z,13.81
2018-12-06T12:10:03.380Z,13.78
2018-12-06T12:11:03.988Z,13.75
2018-12-06T12:12:04.593Z,13.74
2018-12-06T12:13:05.203Z,13.72
2018-12-06T12:14:05.813Z,13.63
2018-12-06T12:15:06.417Z,13.77
2018-12-06T12:16:07.028Z,13.64
2018-12-06T12:17:07.631Z,13.63
2018-12-06T12:18:08.231Z,13.56
2018-12-06T12:19:08.837Z,13.61
2018-12-06T12:20:09.451Z,13.63
2018-12-06T12:21:10.062Z,13.64
2018-12-06T12:22:10.667Z,13.64
2018-12-06T12:23:11.265Z,13.61
2018-12-06T12:24:11.860Z,13.60
2018-12-06T12:25:12.462Z,13.59
2018-12-06T12:26:13.066Z,13.64
2018-12-06T12:27:13.674Z,13.60
2018-12-06T12:28:14.283Z,13.56
2018-12-06T12:29:14.889Z,13.66
2018-12-06T12:30:15.496Z,13.72
2018-12-06T12:31:16.103Z,13.72
2018-12-06T12:32:16.714Z,13.75
2018-12-06T12:33:17.318Z,13.87
2018-12-06T12:34:17.925Z,13.75
2018-12-06T12:35:18.886Z,13.90
2018-12-06T12:36:19.141Z,13.86
2018-12-06T12:37:19.750Z,13.84
2018-12-06T12:38:20.346Z,13.84
2018-12-06T12:39:21.048Z,13.92
2018-12-06T12:40:21.659Z,13.87
2018-12-06T12:41:22.272Z,13.81
2018-12-06T12:42:22.878Z,13.86
2018-12-06T12:43:23.478Z,13.97
2018-12-06T12:44:24.087Z,13.89
2018-12-06T12:45:24.691Z,13.94
2018-12-06T12:46:25.294Z,14.03
2018-12-06T12:47:25.898Z,13.96
2018-12-06T12:48:26.521Z,13.99
2018-12-06T12:49:27.117Z,14.07
2018-12-06T12:50:27.720Z,14.00
2018-12-06T12:51:28.330Z,14.11
2018-12-06T12:52:28.930Z,14.10
2018-12-06T12:53:29.543Z,14.11
2018-12-06T12:54:30.155Z,14.11
2018-12-06T12:55:30.765Z,14.17
2018-12-06T12:56:31.375Z,14.15
2018-12-06T12:57:31.996Z,14.33
2018-12-06T12:58:32.606Z,14.25
2018-12-06T12:59:33.209Z,14.19
2018-12-06T13:00:33.808Z,14.21
2018-12-06T13:01:34.410Z,14.18
2018-12-06T13:02:35.016Z,14.17
2018-12-06T13:03:35.624Z,14.18
2018-12-06T13:04:36.232Z,14.19
2018-12-06T13:05:36.832Z,14.23
2018-12-06T13:06:37.440Z,14.26
2018-12-06T13:07:38.038Z,14.26